Detroit, Michigan
Traffic Map
Current Weather Conditions
Detroit, Michigan
Few Clouds
Few Clouds

Feels Like: 4°
Wind Chill: Ceiling: Unl
Heat Index: Visibility: 15mi
Dew Point: Wind: 7mph
Humidity: 70% Direction: 320° (NW)
Pressure: 30.13in Gusts: 0mph
Raw Report DataCYQG 281200Z 32006KT 15SM FEW270 06/01 A3013 RMK CI2 CONTRAILS SLP208
Traffic Incident Summary
Active as of:
Severity:
Category:
InformationThere was an issue retrieving the traffic information for this location. Please try a different location or try again shortly.
Advertisements
Track Severe Weather on mobile